100LL.CA
Aviation Fuel Pricing for Canadians
Please upgrade your browser - Tested with IE9, FireFox, Chrome, Safari

Fuel Airports Other Help
Prices Economy Info List METAR/TAF Kneeboard Help

Enter a list of
Airport Idents:
Sort Method: As Entered    By Ident   

CYVR
METAR CYVR 221000Z 06002KT 30SM SKC 15/12 A3021 RMK SLP230
TAF CYVR 220838Z 2209/2312 VRB03KT P6SM SKC BECMG 2215/2217 28010KT BECMG 2302/2304 26005KT FM230900 10006KT P6SM SKC RMK NXT FCST BY 221200Z
CYXX
METAR CYXX 221000Z 32002KT 15SM SKC 13/10 A3021 RMK SLP230
TAF CYXX 220538Z 2206/2306 VRB03KT P6SM SKC BECMG 2219/2221 22008KT BECMG 2303/2305 VRB03KT RMK NXT FCST BY 221200Z
KBLI
METAR KBLI 220953Z AUTO 00000KT 10SM CLR 12/09 A3020 RMK AO2 SLP233 T01220094
TAF KBLI 220520Z 2206/2306 VRB04KT P6SM SKC FM221800 26006KT P6SM SKC FM230300 VRB03KT P6SM SKC


Please Send Updates!

Desktop Version ]  [ Mobile Version ]  [ Disclaimer ]